Hiyodori — JD2366 — position and weather

sailwx.info

Track history (hours):
 
Tides and Currents Weather Stations Pressure Air Temp Water Temp Dewpoint Dewpoint Depression Visibility Wind Speed Wind Dir Waves Ship Positions

Hiyodori

Last reported at 2017-Dec-16 07:00 UTC. Time now 2017-Dec-16 07:23 UTC.
Position N 35°24' E 139°40'.

Length 88 m; draft 3.6 m.

Type: Cargo ship. MMSI: 431000132.

Date/timePositionNaut miles runAvg speedWind from/ knotsBaromVisibWave heightAir tempDewpointWater temp
2017-Dec-16 07:00N 35°24' E 139°40'1 2.1
2017-Dec-16 06:30N 35°23' E 139°41'2 4.0
2017-Dec-16 05:59N 35°23' E 139°44'0 0.0
2017-Dec-16 05:29N 35°23' E 139°44'0 0.0
2017-Dec-16 04:59N 35°23' E 139°44'0 0.0
2017-Dec-16 04:29N 35°23' E 139°44'0 0.1
2017-Dec-16 04:00N 35°23' E 139°44'4 7.8
2017-Dec-16 03:31N 35°19' E 139°44'611.5
2017-Dec-16 03:00N 35°13' E 139°47'611.8
2017-Dec-16 02:31N 35°07' E 139°46'611.2
2017-Dec-16 02:00N 35°03' E 139°41'612.1
2017-Dec-16 01:31N 34°59' E 139°35'1213.0
2017-Dec-16 00:34N 34°53' E 139°23'213.3
2017-Dec-16 00:24N 34°51' E 139°21'513.2
2017-Dec-16 00:01N 34°48' E 139°16'1012.7
2017-Dec-15 23:15N 34°42' E 139°07'312.4
2017-Dec-15 23:01N 34°40' E 139°04'612.3
2017-Dec-15 22:30N 34°36' E 138°58'712.7
2017-Dec-15 21:56N 34°35' E 138°50'613.4
2017-Dec-15 21:30N 34°35' E 138°43'712.8
2017-Dec-15 20:56N 34°34' E 138°34'512.0
2017-Dec-15 20:31N 34°34' E 138°28'612.4
2017-Dec-15 20:00N 34°34' E 138°20'612.8
2017-Dec-15 19:30N 34°34' E 138°12'4112.2
2017-Dec-15 16:10N 34°33' E 137°23'511.5
2017-Dec-15 15:43N 34°33' E 137°17'1910.8
2017-Dec-15 13:56N 34°38' E 136°54'711.8
2017-Dec-15 13:19N 34°43' E 136°49'412.2
2017-Dec-15 13:00N 34°47' E 136°46'611.9
2017-Dec-15 12:30N 34°53' E 136°46'611.8
2017-Dec-15 12:01N 34°58' E 136°48'5 9.5
2017-Dec-15 11:31N 35°03' E 136°50'0 0.1
2017-Dec-15 10:58N 35°03' E 136°50'0 0.0
2017-Dec-15 10:28N 35°03' E 136°50'0 0.0
2017-Dec-15 09:58N 35°03' E 136°50'0 0.0
2017-Dec-15 09:28N 35°03' E 136°50'0 0.6
2017-Dec-15 09:00N 35°02' E 136°50'4 7.3
2017-Dec-15 08:30N 34°59' E 136°48'0 0.1
2017-Dec-15 07:59N 34°59' E 136°48'0 0.1
2017-Dec-15 07:29N 34°59' E 136°48'0 0.0
2017-Dec-15 06:59N 34°59' E 136°48'0 0.1
2017-Dec-15 06:29N 34°59' E 136°48'0 0.0
2017-Dec-15 05:59N 34°59' E 136°48'0 0.1
2017-Dec-15 05:29N 34°59' E 136°48'0 0.0
2017-Dec-15 04:59N 34°59' E 136°48'0 0.0
2017-Dec-15 04:29N 34°59' E 136°48'0 0.0
2017-Dec-15 03:59N 34°59' E 136°48'3 2.0
2017-Dec-15 02:31N 35°01' E 136°50'1 0.9
2017-Dec-15 00:59N 35°03' E 136°50'0 0.0
2017-Dec-15 00:29N 35°03' E 136°50'5 0.8
2017-Dec-14 18:29N 34°59' E 136°48'0 0.0
2017-Dec-14 17:59N 34°59' E 136°48'0 0.0
2017-Dec-14 17:29N 34°59' E 136°48'0 0.0
2017-Dec-14 16:59N 34°59' E 136°48'0 0.0
2017-Dec-14 16:29N 34°59' E 136°48'0 0.0
2017-Dec-14 15:59N 34°59' E 136°48'0 0.0
2017-Dec-14 14:59N 34°59' E 136°48'0 0.0
2017-Dec-14 14:29N 34°59' E 136°48'0 0.0
2017-Dec-14 13:59N 34°59' E 136°48'0 0.1
2017-Dec-14 13:30N 34°59' E 136°48'5 9.2
2017-Dec-14 13:00N 34°54' E 136°47'510.5
2017-Dec-14 12:30N 34°49' E 136°47'510.5
2017-Dec-14 12:00N 34°44' E 136°50'510.6
2017-Dec-14 11:30N 34°40' E 136°53'510.4
2017-Dec-14 11:00N 34°36' E 136°58'1510.0
2017-Dec-14 09:33N 34°32' E 137°15'511.2
2017-Dec-14 09:04N 34°32' E 137°21'4010.7
2017-Dec-14 05:18N 34°34' E 138°10'612.0
2017-Dec-14 04:49N 34°34' E 138°17'512.1
2017-Dec-14 04:27N 34°34' E 138°23'611.7
2017-Dec-14 03:56N 34°34' E 138°30'611.9
2017-Dec-14 03:28N 34°35' E 138°37'711.9
2017-Dec-14 02:55N 34°35' E 138°45'811.9
2017-Dec-14 02:15N 34°35' E 138°54'812.0
2017-Dec-14 01:34N 34°41' E 139°02'312.6
2017-Dec-14 01:20N 34°43' E 139°04'512.5
2017-Dec-14 00:59N 34°46' E 139°08'711.9
2017-Dec-14 00:21N 34°51' E 139°14'411.7
2017-Dec-14 00:00N 34°54' E 139°19'611.3
2017-Dec-13 23:29N 34°57' E 139°25'510.7
2017-Dec-13 22:58N 34°60' E 139°30'511.6
2017-Dec-13 22:30N 35°03' E 139°35'612.1
2017-Dec-13 22:01N 35°07' E 139°41'611.9
2017-Dec-13 21:30N 35°12' E 139°46'611.7
2017-Dec-13 21:00N 35°17' E 139°44'612.0
2017-Dec-13 20:31N 35°23' E 139°42'612.4
2017-Dec-13 20:00N 35°28' E 139°47'610.1
2017-Dec-13 19:22N 35°34' E 139°49'3 6.8
2017-Dec-13 18:56N 35°36' E 139°46'0 0.0
2017-Dec-13 18:20N 35°36' E 139°46'0 0.0
2017-Dec-13 17:56N 35°36' E 139°46'0 0.0
2017-Dec-13 17:26N 35°36' E 139°46'0 0.0
2017-Dec-13 16:38N 35°36' E 139°46'0 0.0
2017-Dec-13 16:29N 35°36' E 139°46'0 0.0
2017-Dec-13 15:59N 35°36' E 139°46'0 0.0
2017-Dec-13 15:29N 35°36' E 139°46'0 0.0
2017-Dec-13 14:44N 35°36' E 139°46'0 0.0
2017-Dec-13 14:26N 35°36' E 139°46'0 0.0
2017-Dec-13 13:59N 35°36' E 139°46'0 0.0
2017-Dec-13 13:20N 35°36' E 139°46'0 0.0
2017-Dec-13 12:59N 35°36' E 139°46'3 6.5
2017-Dec-13 12:30N 35°34' E 139°49'3 5.8
2017-Dec-13 12:00N 35°34' E 139°52'0 0.2
2017-Dec-13 10:51N 35°33' E 139°53'0 0.0
2017-Dec-13 10:27N 35°33' E 139°53'0 0.0
2017-Dec-13 09:03N 35°33' E 139°53'0 0.1
2017-Dec-13 08:57N 35°33' E 139°53'0 0.0
2017-Dec-13 08:27N 35°33' E 139°53'0 0.1
2017-Dec-13 07:36N 35°34' E 139°53'0 0.2
2017-Dec-13 07:30N 35°34' E 139°53'0 0.0
2017-Dec-13 06:54N 35°34' E 139°53'0 0.0
2017-Dec-13 06:30N 35°34' E 139°53'0 0.0
2017-Dec-13 05:57N 35°34' E 139°53'0 0.0
2017-Dec-13 05:27N 35°34' E 139°53'0 0.0
2017-Dec-13 04:51N 35°34' E 139°53'2 4.3
2017-Dec-13 04:30N 35°32' E 139°52'510.9
2017-Dec-13 04:00N 35°30' E 139°46'1 1.3
2017-Dec-13 03:30N 35°29' E 139°45'0 0.1
2017-Dec-13 03:00N 35°29' E 139°45'0 0.0
2017-Dec-13 02:27N 35°29' E 139°45'0 0.0
2017-Dec-13 02:00N 35°29' E 139°45'3 5.3
2017-Dec-13 01:31N 35°27' E 139°46'510.9
2017-Dec-13 01:00N 35°21' E 139°45'510.7
2017-Dec-13 00:31N 35°16' E 139°46'611.2
2017-Dec-13 00:00N 35°10' E 139°46'611.1
2017-Dec-12 23:30N 35°05' E 139°44'611.0
2017-Dec-12 23:00N 35°02' E 139°39'1512.6
2017-Dec-12 21:51N 34°53' E 139°24'612.9
2017-Dec-12 21:25N 34°50' E 139°19'612.6
2017-Dec-12 20:58N 34°46' E 139°13'712.5
2017-Dec-12 20:26N 34°42' E 139°07'511.9
2017-Dec-12 20:00N 34°39' E 139°02'611.4
2017-Dec-12 19:29N 34°35' E 138°56'612.1
2017-Dec-12 19:00N 34°35' E 138°49'612.3
2017-Dec-12 18:29N 34°35' E 138°41'612.8
2017-Dec-12 18:01N 34°34' E 138°34'612.7
2017-Dec-12 17:30N 34°34' E 138°26'712.6
2017-Dec-12 16:59N 34°34' E 138°18'613.1
2017-Dec-12 16:30N 34°34' E 138°11'1012.9
2017-Dec-12 15:43N 34°34' E 137°58'3012.6
2017-Dec-12 13:23N 34°33' E 137°23'512.6
2017-Dec-12 12:59N 34°33' E 137°17'1711.8
2017-Dec-12 11:33N 34°36' E 136°56'212.2
2017-Dec-12 11:22N 34°38' E 136°54'711.9
2017-Dec-12 10:46N 34°43' E 136°49'312.5
2017-Dec-12 10:31N 34°46' E 136°47'611.8
2017-Dec-12 10:01N 34°52' E 136°46'611.2
2017-Dec-12 09:31N 34°57' E 136°47'611.4
2017-Dec-12 09:01N 35°02' E 136°50'1 1.0
2017-Dec-12 08:29N 35°03' E 136°50'0 0.0
2017-Dec-12 08:00N 35°03' E 136°50'3 5.4
2017-Dec-12 07:30N 35°01' E 136°48'3 5.7
2017-Dec-12 06:59N 34°58' E 136°47'0 0.0
2017-Dec-12 06:29N 34°58' E 136°47'0 0.0
2017-Dec-12 05:59N 34°58' E 136°47'0 0.0
2017-Dec-12 05:29N 34°58' E 136°47'0 0.0
2017-Dec-12 04:59N 34°58' E 136°47'0 0.0
2017-Dec-12 04:23N 34°58' E 136°47'0 0.2
2017-Dec-12 03:59N 34°58' E 136°47'0 0.1
2017-Dec-12 03:29N 34°58' E 136°46'0 0.0
2017-Dec-12 02:59N 34°58' E 136°46'0 0.0
2017-Dec-12 02:26N 34°58' E 136°46'0 0.1
2017-Dec-12 01:59N 34°58' E 136°47'2 5.1
2017-Dec-12 01:30N 34°56' E 136°47'611.1
2017-Dec-12 01:00N 34°50' E 136°47'510.0
2017-Dec-12 00:30N 34°45' E 136°49'5 9.5
2017-Dec-12 00:00N 34°41' E 136°52'4 8.8
2017-Dec-11 23:30N 34°38' E 136°56'4 8.2
2017-Dec-11 23:00N 34°35' E 136°59'9 7.5
2017-Dec-11 21:49N 34°34' E 137°10'3 9.1
2017-Dec-11 21:30N 34°34' E 137°13'48 6.7
2017-Dec-11 14:17N 34°34' E 138°12'2 6.1
2017-Dec-11 13:56N 34°35' E 138°14'4 7.5
2017-Dec-11 13:27N 34°37' E 138°18'510.6
2017-Dec-11 13:00N 34°41' E 138°21'510.9
2017-Dec-11 12:30N 34°46' E 138°24'510.9
2017-Dec-11 12:00N 34°51' E 138°27'510.3
2017-Dec-11 11:30N 34°55' E 138°30'5 9.9
2017-Dec-11 11:00N 34°59' E 138°33'3 6.1
2017-Dec-11 10:30N 35°02' E 138°31'0 0.3
2017-Dec-11 10:00N 35°02' E 138°31'0 0.0
2017-Dec-11 09:30N 35°02' E 138°31'0 0.0
2017-Dec-11 09:00N 35°02' E 138°31'0 0.0
2017-Dec-11 08:30N 35°02' E 138°31'0 0.0
2017-Dec-11 08:00N 35°02' E 138°31'0 0.0
2017-Dec-11 07:30N 35°02' E 138°31'0 0.0
2017-Dec-11 07:00N 35°02' E 138°31'0 0.0
2017-Dec-11 06:30N 35°02' E 138°31'0 0.0
2017-Dec-11 06:00N 35°02' E 138°31'0 0.0
2017-Dec-11 05:30N 35°02' E 138°31'0 0.0
2017-Dec-11 05:00N 35°02' E 138°31'0 0.0
2017-Dec-11 04:30N 35°02' E 138°31'0 0.0
2017-Dec-11 04:00N 35°02' E 138°31'0 0.0
2017-Dec-11 03:30N 35°02' E 138°31'0 0.0
2017-Dec-11 02:57N 35°02' E 138°31'0 0.0
2017-Dec-11 02:30N 35°02' E 138°31'0 0.0
2017-Dec-11 02:00N 35°02' E 138°31'0 0.0
2017-Dec-11 01:30N 35°02' E 138°31'1 2.0
2017-Dec-11 01:01N 35°02' E 138°30'0 0.4
2017-Dec-11 00:30N 35°02' E 138°30'0 0.0
2017-Dec-11 00:00N 35°02' E 138°30'0 0.0
2017-Dec-10 23:30N 35°02' E 138°30'0 0.0
2017-Dec-10 23:00N 35°02' E 138°30'0 0.0
2017-Dec-10 22:30N 35°02' E 138°30'0 0.0
2017-Dec-10 22:00N 35°02' E 138°30'0 0.0
2017-Dec-10 21:30N 35°02' E 138°30'0 0.0
2017-Dec-10 21:00N 35°02' E 138°30'0 0.0
2017-Dec-10 20:30N 35°02' E 138°30'0 0.0
2017-Dec-10 20:00N 35°02' E 138°30'0 0.0
2017-Dec-10 19:30N 35°02' E 138°30'0 0.0
2017-Dec-10 19:00N 35°02' E 138°30'0 0.0
2017-Dec-10 18:30N 35°02' E 138°30'0 0.0
2017-Dec-10 18:00N 35°02' E 138°30'0 0.0
2017-Dec-10 17:30N 35°02' E 138°30'0 0.0
2017-Dec-10 17:00N 35°02' E 138°30'0 0.0
2017-Dec-10 16:30N 35°02' E 138°30'0 0.0
2017-Dec-10 16:00N 35°02' E 138°30'0 0.0
2017-Dec-10 15:30N 35°02' E 138°30'0 0.0
2017-Dec-10 15:00N 35°02' E 138°30'0 0.0
2017-Dec-10 14:30N 35°02' E 138°30'0 0.0
2017-Dec-10 14:00N 35°02' E 138°30'0 0.0
2017-Dec-10 13:30N 35°02' E 138°30'0 0.0
2017-Dec-10 13:00N 35°02' E 138°30'0 0.0
2017-Dec-10 12:27N 35°02' E 138°30'0 0.0
2017-Dec-10 12:00N 35°02' E 138°30'0 0.0
2017-Dec-10 11:30N 35°02' E 138°30'0 0.0
2017-Dec-10 11:00N 35°02' E 138°30'0 0.0
2017-Dec-10 10:30N 35°02' E 138°30'0 0.0
2017-Dec-10 10:00N 35°02' E 138°30'0 0.0
2017-Dec-10 09:30N 35°02' E 138°30'0 0.0
2017-Dec-10 09:00N 35°02' E 138°30'0 0.0
2017-Dec-10 08:30N 35°02' E 138°30'0 0.0
2017-Dec-10 08:00N 35°02' E 138°30'0 0.0
2017-Dec-10 07:30N 35°02' E 138°30'0 0.0
2017-Dec-10 07:00N 35°02' E 138°30'0 0.0
2017-Dec-10 06:30N 35°02' E 138°30'0 0.0
2017-Dec-10 06:00N 35°02' E 138°30'0 0.0
2017-Dec-10 05:30N 35°02' E 138°30'0 0.0
2017-Dec-10 05:00N 35°02' E 138°30'0 0.0
2017-Dec-10 04:30N 35°02' E 138°30'0 0.0
2017-Dec-10 04:00N 35°02' E 138°30'0 0.0
2017-Dec-10 03:30N 35°02' E 138°30'0 0.0
2017-Dec-10 03:00N 35°02' E 138°30'0 0.0
2017-Dec-10 02:30N 35°02' E 138°30'0 0.0
2017-Dec-10 02:00N 35°02' E 138°30'0 0.0
2017-Dec-10 01:30N 35°02' E 138°30'0 0.0
2017-Dec-10 01:00N 35°02' E 138°30'0 0.7
2017-Dec-10 00:28N 35°02' E 138°30'0 0.0
2017-Dec-09 23:58N 35°02' E 138°30'0 0.1
2017-Dec-09 23:28N 35°02' E 138°30'0 0.1
2017-Dec-09 22:58N 35°02' E 138°30'0 0.1
2017-Dec-09 22:28N 35°02' E 138°30'0 0.1
2017-Dec-09 21:58N 35°02' E 138°30'0 0.0
2017-Dec-09 21:28N 35°02' E 138°30'0 0.0
2017-Dec-09 20:58N 35°02' E 138°30'0 0.0
2017-Dec-09 20:25N 35°02' E 138°30'0 0.0
2017-Dec-09 19:55N 35°02' E 138°30'0 0.0
2017-Dec-09 19:28N 35°02' E 138°30'0 0.0
2017-Dec-09 18:58N 35°02' E 138°30'0 0.0
2017-Dec-09 18:25N 35°02' E 138°30'0 0.0
2017-Dec-09 17:58N 35°02' E 138°30'2 3.4
2017-Dec-09 17:30N 35°01' E 138°32'510.8
2017-Dec-09 17:00N 34°56' E 138°35'611.6
2017-Dec-09 16:29N 34°50' E 138°37'612.0
2017-Dec-09 15:58N 34°45' E 138°39'511.1
2017-Dec-09 15:30N 34°40' E 138°42'5 9.0
2017-Dec-09 15:00N 34°37' E 138°46'4 7.7
2017-Dec-09 14:30N 34°35' E 138°50'4 7.4
2017-Dec-09 14:00N 34°36' E 138°55'11 9.9
2017-Dec-09 12:53N 34°43' E 139°04'410.8
2017-Dec-09 12:29N 34°46' E 139°08'910.7
2017-Dec-09 11:36N 34°53' E 139°16'110.5
2017-Dec-09 11:29N 34°54' E 139°17'510.5
2017-Dec-09 11:00N 34°57' E 139°22'5 9.2
2017-Dec-09 10:30N 34°59' E 139°27'5 9.6
2017-Dec-09 10:00N 35°01' E 139°32'510.7
2017-Dec-09 09:31N 35°05' E 139°37'611.9
2017-Dec-09 09:00N 35°08' E 139°43'611.8
2017-Dec-09 08:30N 35°14' E 139°46'611.5
2017-Dec-09 08:01N 35°19' E 139°43'510.8
2017-Dec-09 07:31N 35°24' E 139°40'0 0.8
2017-Dec-09 07:00N 35°24' E 139°41'0 0.0
2017-Dec-09 06:30N 35°24' E 139°41'1 1.0
2017-Dec-09 06:01N 35°24' E 139°40'1 2.8
2017-Dec-09 05:30N 35°24' E 139°42'5 9.7
2017-Dec-09 05:01N 35°28' E 139°45'1 2.8
2017-Dec-09 04:29N 35°29' E 139°45'1 2.8
2017-Dec-09 04:00N 35°28' E 139°45'510.8
2017-Dec-09 03:30N 35°23' E 139°45'510.2
2017-Dec-09 03:00N 35°18' E 139°45'510.8
2017-Dec-09 02:30N 35°12' E 139°47'611.4
2017-Dec-09 02:00N 35°07' E 139°45'611.2
2017-Dec-09 01:30N 35°03' E 139°40'611.3
2017-Dec-09 01:00N 34°59' E 139°35'1112.4
2017-Dec-09 00:08N 34°54' E 139°24'212.7
2017-Dec-09 00:00N 34°52' E 139°22'612.1
2017-Dec-08 23:30N 34°48' E 139°17'1012.3
2017-Dec-08 22:40N 34°42' E 139°07'211.9
2017-Dec-08 22:28N 34°41' E 139°04'511.1
2017-Dec-08 22:00N 34°37' E 138°60'711.7
2017-Dec-08 21:26N 34°35' E 138°52'613.0
2017-Dec-08 21:00N 34°35' E 138°45'612.5
2017-Dec-08 20:30N 34°34' E 138°38'712.9
2017-Dec-08 19:59N 34°33' E 138°30'612.7
2017-Dec-08 19:29N 34°33' E 138°22'612.7
2017-Dec-08 19:01N 34°33' E 138°15'712.8
2017-Dec-08 18:28N 34°33' E 138°06'3511.7
2017-Dec-08 15:28N 34°32' E 137°23'712.0
2017-Dec-08 14:53N 34°32' E 137°15'1811.8
2017-Dec-08 13:22N 34°38' E 136°54'512.4
2017-Dec-08 12:58N 34°41' E 136°50'612.5
2017-Dec-08 12:30N 34°46' E 136°47'612.0
2017-Dec-08 12:01N 34°52' E 136°46'611.9
2017-Dec-08 11:30N 34°58' E 136°48'511.0
2017-Dec-08 11:01N 35°03' E 136°50'0 0.3
2017-Dec-08 10:28N 35°03' E 136°50'0 0.0
2017-Dec-08 09:58N 35°03' E 136°50'0 0.0
2017-Dec-08 09:28N 35°03' E 136°50'0 0.0
2017-Dec-08 08:58N 35°03' E 136°50'0 0.0
2017-Dec-08 08:28N 35°03' E 136°50'0 0.0
2017-Dec-08 07:58N 35°03' E 136°50'0 0.0
2017-Dec-08 07:28N 35°03' E 136°50'0 0.5
2017-Dec-08 07:00N 35°03' E 136°50'1 1.1
2017-Dec-08 06:29N 35°02' E 136°50'0 0.0
2017-Dec-08 05:59N 35°02' E 136°50'0 0.0
2017-Dec-08 05:29N 35°02' E 136°50'0 0.0
2017-Dec-08 04:59N 35°02' E 136°50'0 0.0
2017-Dec-08 04:29N 35°02' E 136°50'0 0.0
2017-Dec-08 03:59N 35°02' E 136°50'0 1.0
2017-Dec-08 03:30N 35°02' E 136°51'4 8.9
2017-Dec-08 03:00N 34°58' E 136°47'0 0.6
2017-Dec-08 02:30N 34°58' E 136°47'0 0.0
2017-Dec-08 02:00N 34°58' E 136°47'0 0.8
2017-Dec-08 01:30N 34°58' E 136°47'511.0
2017-Dec-08 01:01N 34°52' E 136°47'611.0
2017-Dec-08 00:30N 34°47' E 136°48'611.1
2017-Dec-08 00:00N 34°42' E 136°51'611.3
2017-Dec-07 23:30N 34°37' E 136°55'612.2
2017-Dec-07 23:00N 34°33' E 137°01'4711.7
2017-Dec-07 18:59N 34°34' E 137°58'11 7.8
2017-Dec-07 17:35N 34°34' E 138°11'3 9.7
2017-Dec-07 17:15N 34°33' E 138°15'3 9.5
2017-Dec-07 16:57N 34°33' E 138°19'810.2
2017-Dec-07 16:10N 34°34' E 138°28'4 9.6
2017-Dec-07 15:48N 34°34' E 138°33'4 9.0
2017-Dec-07 15:19N 34°34' E 138°38'3 9.6
2017-Dec-07 15:00N 34°34' E 138°41'5 9.3
2017-Dec-07 14:25N 34°34' E 138°48'6 8.5
2017-Dec-07 13:46N 34°35' E 138°54'5 9.1
2017-Dec-07 13:16N 34°37' E 138°59'410.7
2017-Dec-07 12:54N 34°40' E 139°03'810.7
2017-Dec-07 12:06N 34°46' E 139°11'110.3
2017-Dec-07 11:58N 34°47' E 139°12'1710.0
2017-Dec-07 10:16N 34°58' E 139°28'3 9.7
2017-Dec-07 10:00N 34°59' E 139°30'510.0
2017-Dec-07 09:31N 35°03' E 139°34'611.5
2017-Dec-07 09:01N 35°06' E 139°40'611.6
2017-Dec-07 08:31N 35°11' E 139°45'510.6
2017-Dec-07 08:00N 35°16' E 139°46'611.1
2017-Dec-07 07:31N 35°21' E 139°42'510.6
2017-Dec-07 07:01N 35°26' E 139°44'611.4
2017-Dec-07 06:30N 35°30' E 139°49'4 9.0
2017-Dec-07 06:01N 35°34' E 139°48'2 0.5
2017-Dec-07 01:52N 35°36' E 139°46'1 1.5
2017-Dec-07 01:30N 35°36' E 139°46'0 0.0
2017-Dec-06 23:28N 35°36' E 139°46'3 6.2
2017-Dec-06 23:00N 35°34' E 139°48'3 5.4
2017-Dec-06 22:24N 35°34' E 139°53'0 0.0
2017-Dec-06 21:57N 35°34' E 139°53'0 0.0
2017-Dec-06 21:15N 35°34' E 139°53'0 0.1
2017-Dec-06 20:48N 35°34' E 139°53'  
Track history (hours):
 
Tides and Currents Weather Stations Pressure Air Temp Water Temp Dewpoint Dewpoint Depression Visibility Wind Speed Wind Dir Waves Ship Positions

Hiyodori

Last reported at 2017-Dec-16 07:00 UTC. Time now 2017-Dec-16 07:23 UTC.
Position N 35°24' E 139°40'.

Length 88 m; draft 3.6 m.

Type: Cargo ship. MMSI: 431000132.

Date/timePositionNaut miles runAvg speedWind from/ knotsBaromVisibWave heightAir tempDewpointWater temp
2017-Dec-16 07:00N 35°24' E 139°40'1 2.1
2017-Dec-16 06:30N 35°23' E 139°41'2 4.0
2017-Dec-16 05:59N 35°23' E 139°44'0 0.0
2017-Dec-16 05:29N 35°23' E 139°44'0 0.0
2017-Dec-16 04:59N 35°23' E 139°44'0 0.0
2017-Dec-16 04:29N 35°23' E 139°44'0 0.1
2017-Dec-16 04:00N 35°23' E 139°44'4 7.8
2017-Dec-16 03:31N 35°19' E 139°44'611.5
2017-Dec-16 03:00N 35°13' E 139°47'611.8
2017-Dec-16 02:31N 35°07' E 139°46'611.2
2017-Dec-16 02:00N 35°03' E 139°41'612.1
2017-Dec-16 01:31N 34°59' E 139°35'1213.0
2017-Dec-16 00:34N 34°53' E 139°23'213.3
2017-Dec-16 00:24N 34°51' E 139°21'513.2
2017-Dec-16 00:01N 34°48' E 139°16'1012.7
2017-Dec-15 23:15N 34°42' E 139°07'312.4
2017-Dec-15 23:01N 34°40' E 139°04'612.3
2017-Dec-15 22:30N 34°36' E 138°58'712.7
2017-Dec-15 21:56N 34°35' E 138°50'613.4
2017-Dec-15 21:30N 34°35' E 138°43'712.8
2017-Dec-15 20:56N 34°34' E 138°34'512.0
2017-Dec-15 20:31N 34°34' E 138°28'612.4
2017-Dec-15 20:00N 34°34' E 138°20'612.8
2017-Dec-15 19:30N 34°34' E 138°12'4112.2
2017-Dec-15 16:10N 34°33' E 137°23'511.5
2017-Dec-15 15:43N 34°33' E 137°17'1910.8
2017-Dec-15 13:56N 34°38' E 136°54'711.8
2017-Dec-15 13:19N 34°43' E 136°49'412.2
2017-Dec-15 13:00N 34°47' E 136°46'611.9
2017-Dec-15 12:30N 34°53' E 136°46'611.8
2017-Dec-15 12:01N 34°58' E 136°48'5 9.5
2017-Dec-15 11:31N 35°03' E 136°50'0 0.1
2017-Dec-15 10:58N 35°03' E 136°50'0 0.0
2017-Dec-15 10:28N 35°03' E 136°50'0 0.0
2017-Dec-15 09:58N 35°03' E 136°50'0 0.0
2017-Dec-15 09:28N 35°03' E 136°50'0 0.6
2017-Dec-15 09:00N 35°02' E 136°50'4 7.3
2017-Dec-15 08:30N 34°59' E 136°48'0 0.1
2017-Dec-15 07:59N 34°59' E 136°48'0 0.1
2017-Dec-15 07:29N 34°59' E 136°48'0 0.0
2017-Dec-15 06:59N 34°59' E 136°48'0 0.1
2017-Dec-15 06:29N 34°59' E 136°48'0 0.0
2017-Dec-15 05:59N 34°59' E 136°48'0 0.1
2017-Dec-15 05:29N 34°59' E 136°48'0 0.0
2017-Dec-15 04:59N 34°59' E 136°48'0 0.0
2017-Dec-15 04:29N 34°59' E 136°48'0 0.0
2017-Dec-15 03:59N 34°59' E 136°48'3 2.0
2017-Dec-15 02:31N 35°01' E 136°50'1 0.9
2017-Dec-15 00:59N 35°03' E 136°50'0 0.0
2017-Dec-15 00:29N 35°03' E 136°50'5 0.8
2017-Dec-14 18:29N 34°59' E 136°48'0 0.0
2017-Dec-14 17:59N 34°59' E 136°48'0 0.0
2017-Dec-14 17:29N 34°59' E 136°48'0 0.0
2017-Dec-14 16:59N 34°59' E 136°48'0 0.0
2017-Dec-14 16:29N 34°59' E 136°48'0 0.0
2017-Dec-14 15:59N 34°59' E 136°48'0 0.0
2017-Dec-14 14:59N 34°59' E 136°48'0 0.0
2017-Dec-14 14:29N 34°59' E 136°48'0 0.0
2017-Dec-14 13:59N 34°59' E 136°48'0 0.1
2017-Dec-14 13:30N 34°59' E 136°48'5 9.2
2017-Dec-14 13:00N 34°54' E 136°47'510.5
2017-Dec-14 12:30N 34°49' E 136°47'510.5
2017-Dec-14 12:00N 34°44' E 136°50'510.6
2017-Dec-14 11:30N 34°40' E 136°53'510.4
2017-Dec-14 11:00N 34°36' E 136°58'1510.0
2017-Dec-14 09:33N 34°32' E 137°15'511.2
2017-Dec-14 09:04N 34°32' E 137°21'4010.7
2017-Dec-14 05:18N 34°34' E 138°10'612.0
2017-Dec-14 04:49N 34°34' E 138°17'512.1
2017-Dec-14 04:27N 34°34' E 138°23'611.7
2017-Dec-14 03:56N 34°34' E 138°30'611.9
2017-Dec-14 03:28N 34°35' E 138°37'711.9
2017-Dec-14 02:55N 34°35' E 138°45'811.9
2017-Dec-14 02:15N 34°35' E 138°54'812.0
2017-Dec-14 01:34N 34°41' E 139°02'312.6
2017-Dec-14 01:20N 34°43' E 139°04'512.5
2017-Dec-14 00:59N 34°46' E 139°08'711.9
2017-Dec-14 00:21N 34°51' E 139°14'411.7
2017-Dec-14 00:00N 34°54' E 139°19'611.3
2017-Dec-13 23:29N 34°57' E 139°25'510.7
2017-Dec-13 22:58N 34°60' E 139°30'511.6
2017-Dec-13 22:30N 35°03' E 139°35'612.1
2017-Dec-13 22:01N 35°07' E 139°41'611.9
2017-Dec-13 21:30N 35°12' E 139°46'611.7
2017-Dec-13 21:00N 35°17' E 139°44'612.0
2017-Dec-13 20:31N 35°23' E 139°42'612.4
2017-Dec-13 20:00N 35°28' E 139°47'610.1
2017-Dec-13 19:22N 35°34' E 139°49'3 6.8
2017-Dec-13 18:56N 35°36' E 139°46'0 0.0
2017-Dec-13 18:20N 35°36' E 139°46'0 0.0
2017-Dec-13 17:56N 35°36' E 139°46'0 0.0
2017-Dec-13 17:26N 35°36' E 139°46'0 0.0
2017-Dec-13 16:38N 35°36' E 139°46'0 0.0
2017-Dec-13 16:29N 35°36' E 139°46'0 0.0
2017-Dec-13 15:59N 35°36' E 139°46'0 0.0
2017-Dec-13 15:29N 35°36' E 139°46'0 0.0
2017-Dec-13 14:44N 35°36' E 139°46'0 0.0
2017-Dec-13 14:26N 35°36' E 139°46'0 0.0
2017-Dec-13 13:59N 35°36' E 139°46'0 0.0
2017-Dec-13 13:20N 35°36' E 139°46'0 0.0
2017-Dec-13 12:59N 35°36' E 139°46'3 6.5
2017-Dec-13 12:30N 35°34' E 139°49'3 5.8
2017-Dec-13 12:00N 35°34' E 139°52'0 0.2
2017-Dec-13 10:51N 35°33' E 139°53'0 0.0
2017-Dec-13 10:27N 35°33' E 139°53'0 0.0
2017-Dec-13 09:03N 35°33' E 139°53'0 0.1
2017-Dec-13 08:57N 35°33' E 139°53'0 0.0
2017-Dec-13 08:27N 35°33' E 139°53'0 0.1
2017-Dec-13 07:36N 35°34' E 139°53'0 0.2
2017-Dec-13 07:30N 35°34' E 139°53'0 0.0
2017-Dec-13 06:54N 35°34' E 139°53'0 0.0
2017-Dec-13 06:30N 35°34' E 139°53'0 0.0
2017-Dec-13 05:57N 35°34' E 139°53'0 0.0
2017-Dec-13 05:27N 35°34' E 139°53'0 0.0
2017-Dec-13 04:51N 35°34' E 139°53'2 4.3
2017-Dec-13 04:30N 35°32' E 139°52'510.9
2017-Dec-13 04:00N 35°30' E 139°46'1 1.3
2017-Dec-13 03:30N 35°29' E 139°45'0 0.1
2017-Dec-13 03:00N 35°29' E 139°45'0 0.0
2017-Dec-13 02:27N 35°29' E 139°45'0 0.0
2017-Dec-13 02:00N 35°29' E 139°45'3 5.3
2017-Dec-13 01:31N 35°27' E 139°46'510.9
2017-Dec-13 01:00N 35°21' E 139°45'510.7
2017-Dec-13 00:31N 35°16' E 139°46'611.2
2017-Dec-13 00:00N 35°10' E 139°46'611.1
2017-Dec-12 23:30N 35°05' E 139°44'611.0
2017-Dec-12 23:00N 35°02' E 139°39'1512.6
2017-Dec-12 21:51N 34°53' E 139°24'612.9
2017-Dec-12 21:25N 34°50' E 139°19'612.6
2017-Dec-12 20:58N 34°46' E 139°13'712.5
2017-Dec-12 20:26N 34°42' E 139°07'511.9
2017-Dec-12 20:00N 34°39' E 139°02'611.4
2017-Dec-12 19:29N 34°35' E 138°56'612.1
2017-Dec-12 19:00N 34°35' E 138°49'612.3
2017-Dec-12 18:29N 34°35' E 138°41'612.8
2017-Dec-12 18:01N 34°34' E 138°34'612.7
2017-Dec-12 17:30N 34°34' E 138°26'712.6
2017-Dec-12 16:59N 34°34' E 138°18'613.1
2017-Dec-12 16:30N 34°34' E 138°11'1012.9
2017-Dec-12 15:43N 34°34' E 137°58'3012.6
2017-Dec-12 13:23N 34°33' E 137°23'512.6
2017-Dec-12 12:59N 34°33' E 137°17'1711.8
2017-Dec-12 11:33N 34°36' E 136°56'212.2
2017-Dec-12 11:22N 34°38' E 136°54'711.9
2017-Dec-12 10:46N 34°43' E 136°49'312.5
2017-Dec-12 10:31N 34°46' E 136°47'611.8
2017-Dec-12 10:01N 34°52' E 136°46'611.2
2017-Dec-12 09:31N 34°57' E 136°47'611.4
2017-Dec-12 09:01N 35°02' E 136°50'1 1.0
2017-Dec-12 08:29N 35°03' E 136°50'0 0.0
2017-Dec-12 08:00N 35°03' E 136°50'3 5.4
2017-Dec-12 07:30N 35°01' E 136°48'3 5.7
2017-Dec-12 06:59N 34°58' E 136°47'0 0.0
2017-Dec-12 06:29N 34°58' E 136°47'0 0.0
2017-Dec-12 05:59N 34°58' E 136°47'0 0.0
2017-Dec-12 05:29N 34°58' E 136°47'0 0.0
2017-Dec-12 04:59N 34°58' E 136°47'0 0.0
2017-Dec-12 04:23N 34°58' E 136°47'0 0.2
2017-Dec-12 03:59N 34°58' E 136°47'0 0.1
2017-Dec-12 03:29N 34°58' E 136°46'0 0.0
2017-Dec-12 02:59N 34°58' E 136°46'0 0.0
2017-Dec-12 02:26N 34°58' E 136°46'0 0.1
2017-Dec-12 01:59N 34°58' E 136°47'2 5.1
2017-Dec-12 01:30N 34°56' E 136°47'611.1
2017-Dec-12 01:00N 34°50' E 136°47'510.0
2017-Dec-12 00:30N 34°45' E 136°49'5 9.5
2017-Dec-12 00:00N 34°41' E 136°52'4 8.8
2017-Dec-11 23:30N 34°38' E 136°56'4 8.2
2017-Dec-11 23:00N 34°35' E 136°59'9 7.5
2017-Dec-11 21:49N 34°34' E 137°10'3 9.1
2017-Dec-11 21:30N 34°34' E 137°13'48 6.7
2017-Dec-11 14:17N 34°34' E 138°12'2 6.1
2017-Dec-11 13:56N 34°35' E 138°14'4 7.5
2017-Dec-11 13:27N 34°37' E 138°18'510.6
2017-Dec-11 13:00N 34°41' E 138°21'510.9
2017-Dec-11 12:30N 34°46' E 138°24'510.9
2017-Dec-11 12:00N 34°51' E 138°27'510.3
2017-Dec-11 11:30N 34°55' E 138°30'5 9.9
2017-Dec-11 11:00N 34°59' E 138°33'3 6.1
2017-Dec-11 10:30N 35°02' E 138°31'0 0.3
2017-Dec-11 10:00N 35°02' E 138°31'0 0.0
2017-Dec-11 09:30N 35°02' E 138°31'0 0.0
2017-Dec-11 09:00N 35°02' E 138°31'0 0.0
2017-Dec-11 08:30N 35°02' E 138°31'0 0.0
2017-Dec-11 08:00N 35°02' E 138°31'0 0.0
2017-Dec-11 07:30N 35°02' E 138°31'0 0.0
2017-Dec-11 07:00N 35°02' E 138°31'0 0.0
2017-Dec-11 06:30N 35°02' E 138°31'0 0.0
2017-Dec-11 06:00N 35°02' E 138°31'0 0.0
2017-Dec-11 05:30N 35°02' E 138°31'0 0.0
2017-Dec-11 05:00N 35°02' E 138°31'0 0.0
2017-Dec-11 04:30N 35°02' E 138°31'0 0.0
2017-Dec-11 04:00N 35°02' E 138°31'0 0.0
2017-Dec-11 03:30N 35°02' E 138°31'0 0.0
2017-Dec-11 02:57N 35°02' E 138°31'0 0.0
2017-Dec-11 02:30N 35°02' E 138°31'0 0.0
2017-Dec-11 02:00N 35°02' E 138°31'0 0.0
2017-Dec-11 01:30N 35°02' E 138°31'1 2.0
2017-Dec-11 01:01N 35°02' E 138°30'0 0.4
2017-Dec-11 00:30N 35°02' E 138°30'0 0.0
2017-Dec-11 00:00N 35°02' E 138°30'0 0.0
2017-Dec-10 23:30N 35°02' E 138°30'0 0.0
2017-Dec-10 23:00N 35°02' E 138°30'0 0.0
2017-Dec-10 22:30N 35°02' E 138°30'0 0.0
2017-Dec-10 22:00N 35°02' E 138°30'0 0.0
2017-Dec-10 21:30N 35°02' E 138°30'0 0.0
2017-Dec-10 21:00N 35°02' E 138°30'0 0.0
2017-Dec-10 20:30N 35°02' E 138°30'0 0.0
2017-Dec-10 20:00N 35°02' E 138°30'0 0.0
2017-Dec-10 19:30N 35°02' E 138°30'0 0.0
2017-Dec-10 19:00N 35°02' E 138°30'0 0.0
2017-Dec-10 18:30N 35°02' E 138°30'0 0.0
2017-Dec-10 18:00N 35°02' E 138°30'0 0.0
2017-Dec-10 17:30N 35°02' E 138°30'0 0.0
2017-Dec-10 17:00N 35°02' E 138°30'0 0.0
2017-Dec-10 16:30N 35°02' E 138°30'0 0.0
2017-Dec-10 16:00N 35°02' E 138°30'0 0.0
2017-Dec-10 15:30N 35°02' E 138°30'0 0.0
2017-Dec-10 15:00N 35°02' E 138°30'0 0.0
2017-Dec-10 14:30N 35°02' E 138°30'0 0.0
2017-Dec-10 14:00N 35°02' E 138°30'0 0.0
2017-Dec-10 13:30N 35°02' E 138°30'0 0.0
2017-Dec-10 13:00N 35°02' E 138°30'0 0.0
2017-Dec-10 12:27N 35°02' E 138°30'0 0.0
2017-Dec-10 12:00N 35°02' E 138°30'0 0.0
2017-Dec-10 11:30N 35°02' E 138°30'0 0.0
2017-Dec-10 11:00N 35°02' E 138°30'0 0.0
2017-Dec-10 10:30N 35°02' E 138°30'0 0.0
2017-Dec-10 10:00N 35°02' E 138°30'0 0.0
2017-Dec-10 09:30N 35°02' E 138°30'0 0.0
2017-Dec-10 09:00N 35°02' E 138°30'0 0.0
2017-Dec-10 08:30N 35°02' E 138°30'0 0.0
2017-Dec-10 08:00N 35°02' E 138°30'0 0.0
2017-Dec-10 07:30N 35°02' E 138°30'0 0.0
2017-Dec-10 07:00N 35°02' E 138°30'0 0.0
2017-Dec-10 06:30N 35°02' E 138°30'0 0.0
2017-Dec-10 06:00N 35°02' E 138°30'0 0.0
2017-Dec-10 05:30N 35°02' E 138°30'0 0.0
2017-Dec-10 05:00N 35°02' E 138°30'0 0.0
2017-Dec-10 04:30N 35°02' E 138°30'0 0.0
2017-Dec-10 04:00N 35°02' E 138°30'0 0.0
2017-Dec-10 03:30N 35°02' E 138°30'0 0.0
2017-Dec-10 03:00N 35°02' E 138°30'0 0.0
2017-Dec-10 02:30N 35°02' E 138°30'0 0.0
2017-Dec-10 02:00N 35°02' E 138°30'0 0.0
2017-Dec-10 01:30N 35°02' E 138°30'0 0.0
2017-Dec-10 01:00N 35°02' E 138°30'0 0.7
2017-Dec-10 00:28N 35°02' E 138°30'0 0.0
2017-Dec-09 23:58N 35°02' E 138°30'0 0.1
2017-Dec-09 23:28N 35°02' E 138°30'0 0.1
2017-Dec-09 22:58N 35°02' E 138°30'0 0.1
2017-Dec-09 22:28N 35°02' E 138°30'0 0.1
2017-Dec-09 21:58N 35°02' E 138°30'0 0.0
2017-Dec-09 21:28N 35°02' E 138°30'0 0.0
2017-Dec-09 20:58N 35°02' E 138°30'0 0.0
2017-Dec-09 20:25N 35°02' E 138°30'0 0.0
2017-Dec-09 19:55N 35°02' E 138°30'0 0.0
2017-Dec-09 19:28N 35°02' E 138°30'0 0.0
2017-Dec-09 18:58N 35°02' E 138°30'0 0.0
2017-Dec-09 18:25N 35°02' E 138°30'0 0.0
2017-Dec-09 17:58N 35°02' E 138°30'2 3.4
2017-Dec-09 17:30N 35°01' E 138°32'510.8
2017-Dec-09 17:00N 34°56' E 138°35'611.6
2017-Dec-09 16:29N 34°50' E 138°37'612.0
2017-Dec-09 15:58N 34°45' E 138°39'511.1
2017-Dec-09 15:30N 34°40' E 138°42'5 9.0
2017-Dec-09 15:00N 34°37' E 138°46'4 7.7
2017-Dec-09 14:30N 34°35' E 138°50'4 7.4
2017-Dec-09 14:00N 34°36' E 138°55'11 9.9
2017-Dec-09 12:53N 34°43' E 139°04'410.8
2017-Dec-09 12:29N 34°46' E 139°08'910.7
2017-Dec-09 11:36N 34°53' E 139°16'110.5
2017-Dec-09 11:29N 34°54' E 139°17'510.5
2017-Dec-09 11:00N 34°57' E 139°22'5 9.2
2017-Dec-09 10:30N 34°59' E 139°27'5 9.6
2017-Dec-09 10:00N 35°01' E 139°32'510.7
2017-Dec-09 09:31N 35°05' E 139°37'611.9
2017-Dec-09 09:00N 35°08' E 139°43'611.8
2017-Dec-09 08:30N 35°14' E 139°46'611.5
2017-Dec-09 08:01N 35°19' E 139°43'510.8
2017-Dec-09 07:31N 35°24' E 139°40'0 0.8
2017-Dec-09 07:00N 35°24' E 139°41'0 0.0
2017-Dec-09 06:30N 35°24' E 139°41'1 1.0
2017-Dec-09 06:01N 35°24' E 139°40'1 2.8
2017-Dec-09 05:30N 35°24' E 139°42'5 9.7
2017-Dec-09 05:01N 35°28' E 139°45'1 2.8
2017-Dec-09 04:29N 35°29' E 139°45'1 2.8
2017-Dec-09 04:00N 35°28' E 139°45'510.8
2017-Dec-09 03:30N 35°23' E 139°45'510.2
2017-Dec-09 03:00N 35°18' E 139°45'510.8
2017-Dec-09 02:30N 35°12' E 139°47'611.4
2017-Dec-09 02:00N 35°07' E 139°45'611.2
2017-Dec-09 01:30N 35°03' E 139°40'611.3
2017-Dec-09 01:00N 34°59' E 139°35'1112.4
2017-Dec-09 00:08N 34°54' E 139°24'212.7
2017-Dec-09 00:00N 34°52' E 139°22'612.1
2017-Dec-08 23:30N 34°48' E 139°17'1012.3
2017-Dec-08 22:40N 34°42' E 139°07'211.9
2017-Dec-08 22:28N 34°41' E 139°04'511.1
2017-Dec-08 22:00N 34°37' E 138°60'711.7
2017-Dec-08 21:26N 34°35' E 138°52'613.0
2017-Dec-08 21:00N 34°35' E 138°45'612.5
2017-Dec-08 20:30N 34°34' E 138°38'712.9
2017-Dec-08 19:59N 34°33' E 138°30'612.7
2017-Dec-08 19:29N 34°33' E 138°22'612.7
2017-Dec-08 19:01N 34°33' E 138°15'712.8
2017-Dec-08 18:28N 34°33' E 138°06'3511.7
2017-Dec-08 15:28N 34°32' E 137°23'712.0
2017-Dec-08 14:53N 34°32' E 137°15'1811.8
2017-Dec-08 13:22N 34°38' E 136°54'512.4
2017-Dec-08 12:58N 34°41' E 136°50'612.5
2017-Dec-08 12:30N 34°46' E 136°47'612.0
2017-Dec-08 12:01N 34°52' E 136°46'611.9
2017-Dec-08 11:30N 34°58' E 136°48'511.0
2017-Dec-08 11:01N 35°03' E 136°50'0 0.3
2017-Dec-08 10:28N 35°03' E 136°50'0 0.0
2017-Dec-08 09:58N 35°03' E 136°50'0 0.0
2017-Dec-08 09:28N 35°03' E 136°50'0 0.0
2017-Dec-08 08:58N 35°03' E 136°50'0 0.0
2017-Dec-08 08:28N 35°03' E 136°50'0 0.0
2017-Dec-08 07:58N 35°03' E 136°50'0 0.0
2017-Dec-08 07:28N 35°03' E 136°50'0 0.5
2017-Dec-08 07:00N 35°03' E 136°50'1 1.1
2017-Dec-08 06:29N 35°02' E 136°50'0 0.0
2017-Dec-08 05:59N 35°02' E 136°50'0 0.0
2017-Dec-08 05:29N 35°02' E 136°50'0 0.0
2017-Dec-08 04:59N 35°02' E 136°50'0 0.0
2017-Dec-08 04:29N 35°02' E 136°50'0 0.0
2017-Dec-08 03:59N 35°02' E 136°50'0 1.0
2017-Dec-08 03:30N 35°02' E 136°51'4 8.9
2017-Dec-08 03:00N 34°58' E 136°47'0 0.6
2017-Dec-08 02:30N 34°58' E 136°47'0 0.0
2017-Dec-08 02:00N 34°58' E 136°47'0 0.8
2017-Dec-08 01:30N 34°58' E 136°47'511.0
2017-Dec-08 01:01N 34°52' E 136°47'611.0
2017-Dec-08 00:30N 34°47' E 136°48'611.1
2017-Dec-08 00:00N 34°42' E 136°51'611.3
2017-Dec-07 23:30N 34°37' E 136°55'612.2
2017-Dec-07 23:00N 34°33' E 137°01'4711.7
2017-Dec-07 18:59N 34°34' E 137°58'11 7.8
2017-Dec-07 17:35N 34°34' E 138°11'3 9.7
2017-Dec-07 17:15N 34°33' E 138°15'3 9.5
2017-Dec-07 16:57N 34°33' E 138°19'810.2
2017-Dec-07 16:10N 34°34' E 138°28'4 9.6
2017-Dec-07 15:48N 34°34' E 138°33'4 9.0
2017-Dec-07 15:19N 34°34' E 138°38'3 9.6
2017-Dec-07 15:00N 34°34' E 138°41'5 9.3
2017-Dec-07 14:25N 34°34' E 138°48'6 8.5
2017-Dec-07 13:46N 34°35' E 138°54'5 9.1
2017-Dec-07 13:16N 34°37' E 138°59'410.7
2017-Dec-07 12:54N 34°40' E 139°03'810.7
2017-Dec-07 12:06N 34°46' E 139°11'110.3
2017-Dec-07 11:58N 34°47' E 139°12'1710.0
2017-Dec-07 10:16N 34°58' E 139°28'3 9.7
2017-Dec-07 10:00N 34°59' E 139°30'510.0
2017-Dec-07 09:31N 35°03' E 139°34'611.5
2017-Dec-07 09:01N 35°06' E 139°40'611.6
2017-Dec-07 08:31N 35°11' E 139°45'510.6
2017-Dec-07 08:00N 35°16' E 139°46'611.1
2017-Dec-07 07:31N 35°21' E 139°42'510.6
2017-Dec-07 07:01N 35°26' E 139°44'611.4
2017-Dec-07 06:30N 35°30' E 139°49'4 9.0
2017-Dec-07 06:01N 35°34' E 139°48'2 0.5
2017-Dec-07 01:52N 35°36' E 139°46'1 1.5
2017-Dec-07 01:30N 35°36' E 139°46'0 0.0
2017-Dec-06 23:28N 35°36' E 139°46'3 6.2
2017-Dec-06 23:00N 35°34' E 139°48'3 5.4
2017-Dec-06 22:24N 35°34' E 139°53'0 0.0
2017-Dec-06 21:57N 35°34' E 139°53'0 0.0
2017-Dec-06 21:15N 35°34' E 139°53'0 0.1
2017-Dec-06 20:48N 35°34' E 139°53'  

Dump ship's entire track history